sensor_id;sensor_type;location;lat;lon;timestamp;pressure;altitude;pressure_sealevel;temperature;humidity
56944;BME280;42848;42.524;12.052;2023-06-10T00:02:07;96510.88;;;20.83;100.00
56944;BME280;42848;42.524;12.052;2023-06-10T00:04:33;96516.41;;;20.80;100.00
56944;BME280;42848;42.524;12.052;2023-06-10T00:06:59;96514.03;;;20.82;100.00
56944;BME280;42848;42.524;12.052;2023-06-10T00:09:25;96509.31;;;20.82;100.00
56944;BME280;42848;42.524;12.052;2023-06-10T00:11:52;96511.66;;;20.84;100.00
56944;BME280;42848;42.524;12.052;2023-06-10T00:14:17;96508.13;;;20.80;100.00
56944;BME280;42848;42.524;12.052;2023-06-10T00:16:43;96505.34;;;20.72;100.00
56944;BME280;42848;42.524;12.052;2023-06-10T00:19:10;96504.91;;;20.49;100.00
56944;BME280;42848;42.524;12.052;2023-06-10T00:21:39;96495.09;;;20.69;100.00
56944;BME280;42848;42.524;12.052;2023-06-10T00:24:07;96510.88;;;20.69;100.00
56944;BME280;42848;42.524;12.052;2023-06-10T00:26:35;96504.53;;;20.61;100.00
56944;BME280;42848;42.524;12.052;2023-06-10T00:29:00;96504.56;;;20.68;100.00
56944;BME280;42848;42.524;12.052;2023-06-10T00:31:26;96502.22;;;20.85;100.00
56944;BME280;42848;42.524;12.052;2023-06-10T00:33:52;96499.06;;;20.86;100.00
56944;BME280;42848;42.524;12.052;2023-06-10T00:36:18;96496.28;;;20.68;100.00
56944;BME280;42848;42.524;12.052;2023-06-10T00:38:43;96503.72;;;20.57;100.00
56944;BME280;42848;42.524;12.052;2023-06-10T00:41:09;96498.63;;;20.59;100.00
56944;BME280;42848;42.524;12.052;2023-06-10T00:43:34;96501.34;;;20.45;100.00
56944;BME280;42848;42.524;12.052;2023-06-10T00:46:00;96492.19;;;20.27;100.00
56944;BME280;42848;42.524;12.052;2023-06-10T00:48:27;96490.34;;;20.63;100.00
56944;BME280;42848;42.524;12.052;2023-06-10T00:50:53;96495.88;;;20.59;100.00
56944;BME280;42848;42.524;12.052;2023-06-10T00:53:19;96500.56;;;20.48;100.00
56944;BME280;42848;42.524;12.052;2023-06-10T00:55:46;96495.06;;;20.55;100.00
56944;BME280;42848;42.524;12.052;2023-06-10T00:58:12;96498.97;;;20.43;100.00
56944;BME280;42848;42.524;12.052;2023-06-10T01:00:38;96495.66;;;20.09;100.00
56944;BME280;42848;42.524;12.052;2023-06-10T01:03:04;96495.69;;;20.16;100.00
56944;BME280;42848;42.524;12.052;2023-06-10T01:05:36;96491.50;;;20.48;100.00
56944;BME280;42848;42.524;12.052;2023-06-10T01:08:10;96490.63;;;20.26;100.00
56944;BME280;42848;42.524;12.052;2023-06-10T01:10:49;96487.81;;;20.18;100.00
56944;BME280;42848;42.524;12.052;2023-06-10T01:13:16;96492.59;;;20.29;100.00
56944;BME280;42848;42.524;12.052;2023-06-10T01:15:43;96473.97;;;20.01;100.00
56944;BME280;42848;42.524;12.052;2023-06-10T01:18:10;96476.41;;;20.16;100.00
56944;BME280;42848;42.524;12.052;2023-06-10T01:20:41;96482.72;;;20.13;100.00
56944;BME280;42848;42.524;12.052;2023-06-10T01:23:09;96482.16;;;19.83;100.00
56944;BME280;42848;42.524;12.052;2023-06-10T01:25:38;96481.66;;;20.43;100.00
56944;BME280;42848;42.524;12.052;2023-06-10T01:33:07;96480.47;;;20.44;100.00
56944;BME280;42848;42.524;12.052;2023-06-10T01:35:36;96482.38;;;20.33;100.00
56944;BME280;42848;42.524;12.052;2023-06-10T01:38:04;96477.63;;;20.30;100.00
56944;BME280;42848;42.524;12.052;2023-06-10T01:40:32;96483.16;;;20.33;100.00
56944;BME280;42848;42.524;12.052;2023-06-10T01:42:58;96476.03;;;20.22;100.00
56944;BME280;42848;42.524;12.052;2023-06-10T01:45:23;96476.47;;;20.31;100.00
56944;BME280;42848;42.524;12.052;2023-06-10T01:47:49;96483.88;;;20.20;100.00
56944;BME280;42848;42.524;12.052;2023-06-10T01:50:15;96476.75;;;20.04;100.00
56944;BME280;42848;42.524;12.052;2023-06-10T01:52:42;96479.97;;;20.28;100.00
56944;BME280;42848;42.524;12.052;2023-06-10T01:55:08;96476.00;;;20.14;100.00
56944;BME280;42848;42.524;12.052;2023-06-10T01:57:33;96469.63;;;19.96;100.00
56944;BME280;42848;42.524;12.052;2023-06-10T01:59:59;96468.94;;;20.17;100.00
56944;BME280;42848;42.524;12.052;2023-06-10T02:02:24;96466.06;;;19.92;100.00
56944;BME280;42848;42.524;12.052;2023-06-10T02:04:50;96461.03;;;20.05;100.00
56944;BME280;42848;42.524;12.052;2023-06-10T02:07:16;96464.19;;;20.17;100.00
56944;BME280;42848;42.524;12.052;2023-06-10T02:09:41;96463.72;;;19.94;100.00
56944;BME280;42848;42.524;12.052;2023-06-10T02:12:07;96453.91;;;20.00;100.00
56944;BME280;42848;42.524;12.052;2023-06-10T02:14:33;96455.09;;;19.99;100.00
56944;BME280;42848;42.524;12.052;2023-06-10T02:16:59;96446.03;;;19.99;100.00
56944;BME280;42848;42.524;12.052;2023-06-10T02:19:25;96447.59;;;19.96;100.00
56944;BME280;42848;42.524;12.052;2023-06-10T02:21:52;96451.59;;;20.16;100.00
56944;BME280;42848;42.524;12.052;2023-06-10T02:24:18;96456.34;;;20.27;100.00
56944;BME280;42848;42.524;12.052;2023-06-10T02:26:44;96451.59;;;20.16;100.00
56944;BME280;42848;42.524;12.052;2023-06-10T02:29:10;96447.97;;;19.91;100.00
56944;BME280;42848;42.524;12.052;2023-06-10T02:31:36;96449.84;;;19.73;100.00
56944;BME280;42848;42.524;12.052;2023-06-10T02:34:03;96470.59;;;19.56;100.00
56944;BME280;42848;42.524;12.052;2023-06-10T02:36:29;96455.19;;;19.48;100.00
56944;BME280;42848;42.524;12.052;2023-06-10T02:38:55;96458.03;;;19.58;100.00
56944;BME280;42848;42.524;12.052;2023-06-10T02:41:21;96452.56;;;19.66;100.00
56944;BME280;42848;42.524;12.052;2023-06-10T02:43:47;96441.69;;;19.98;100.00
56944;BME280;42848;42.524;12.052;2023-06-10T02:46:13;96441.22;;;19.81;100.00
56944;BME280;42848;42.524;12.052;2023-06-10T02:48:42;96437.69;;;19.81;100.00
56944;BME280;42848;42.524;12.052;2023-06-10T02:51:09;96435.44;;;19.35;100.00
56944;BME280;42848;42.524;12.052;2023-06-10T02:53:35;96436.88;;;19.11;100.00
56944;BME280;42848;42.524;12.052;2023-06-10T02:56:01;96430.53;;;19.03;100.00
56944;BME280;42848;42.524;12.052;2023-06-10T02:58:27;96427.47;;;19.16;100.00
56944;BME280;42848;42.524;12.052;2023-06-10T03:00:52;96426.88;;;19.51;100.00
56944;BME280;42848;42.524;12.052;2023-06-10T03:03:18;96426.22;;;19.72;100.00
56944;BME280;42848;42.524;12.052;2023-06-10T03:05:44;96431.63;;;19.50;100.00
56944;BME280;42848;42.524;12.052;2023-06-10T03:08:09;96426.91;;;19.54;100.00
56944;BME280;42848;42.524;12.052;2023-06-10T03:10:35;96428.47;;;19.55;100.00
56944;BME280;42848;42.524;12.052;2023-06-10T03:13:00;96424.56;;;19.56;100.00
56944;BME280;42848;42.524;12.052;2023-06-10T03:15:26;96425.00;;;19.66;100.00
56944;BME280;42848;42.524;12.052;2023-06-10T03:17:54;96426.59;;;19.63;100.00
56944;BME280;42848;42.524;12.052;2023-06-10T03:20:20;96424.66;;;19.71;100.00
56944;BME280;42848;42.524;12.052;2023-06-10T03:22:47;96428.94;;;19.65;100.00
56944;BME280;42848;42.524;12.052;2023-06-10T03:25:12;96431.69;;;19.65;100.00
56944;BME280;42848;42.524;12.052;2023-06-10T03:27:42;96427.81;;;19.69;100.00
56944;BME280;42848;42.524;12.052;2023-06-10T03:30:09;96433.19;;;19.51;100.00
56944;BME280;42848;42.524;12.052;2023-06-10T03:32:34;96423.09;;;19.70;100.00
56944;BME280;42848;42.524;12.052;2023-06-10T03:35:01;96434.06;;;19.59;100.00
56944;BME280;42848;42.524;12.052;2023-06-10T03:37:26;96427.63;;;19.44;100.00
56944;BME280;42848;42.524;12.052;2023-06-10T03:39:52;96436.47;;;19.75;100.00
56944;BME280;42848;42.524;12.052;2023-06-10T03:42:19;96440.34;;;19.59;100.00
56944;BME280;42848;42.524;12.052;2023-06-10T03:44:45;96427.09;;;19.86;100.00
56944;BME280;42848;42.524;12.052;2023-06-10T03:47:11;96419.19;;;19.78;100.00
56944;BME280;42848;42.524;12.052;2023-06-10T03:49:38;96428.22;;;19.75;100.00
56944;BME280;42848;42.524;12.052;2023-06-10T03:52:06;96429.81;;;19.79;100.00
56944;BME280;42848;42.524;12.052;2023-06-10T03:54:32;96429.38;;;19.74;100.00
56944;BME280;42848;42.524;12.052;2023-06-10T03:57:00;96435.72;;;19.81;100.00
56944;BME280;42848;42.524;12.052;2023-06-10T03:59:26;96431.69;;;19.65;100.00
56944;BME280;42848;42.524;12.052;2023-06-10T04:01:52;96431.75;;;19.68;100.00
56944;BME280;42848;42.524;12.052;2023-06-10T04:04:17;96435.44;;;19.31;100.00
56944;BME280;42848;42.524;12.052;2023-06-10T04:06:43;96435.00;;;19.26;100.00
56944;BME280;42848;42.524;12.052;2023-06-10T04:09:10;96434.84;;;18.60;100.00
56944;BME280;42848;42.524;12.052;2023-06-10T04:11:36;96440.41;;;19.12;100.00
56944;BME280;42848;42.524;12.052;2023-06-10T04:14:02;96438.59;;;19.37;100.00
56944;BME280;42848;42.524;12.052;2023-06-10T04:16:28;96428.94;;;19.61;100.00
56944;BME280;42848;42.524;12.052;2023-06-10T04:18:54;96429.34;;;19.63;100.00
56944;BME280;42848;42.524;12.052;2023-06-10T04:21:20;96438.53;;;19.26;100.00
56944;BME280;42848;42.524;12.052;2023-06-10T04:23:47;96432.75;;;18.87;100.00
56944;BME280;42848;42.524;12.052;2023-06-10T04:26:13;96438.06;;;19.14;100.00
56944;BME280;42848;42.524;12.052;2023-06-10T04:28:39;96433.88;;;19.34;100.00
56944;BME280;42848;42.524;12.052;2023-06-10T04:31:05;96436.75;;;19.55;100.00
56944;BME280;42848;42.524;12.052;2023-06-10T04:33:31;96426.63;;;19.67;100.00
56944;BME280;42848;42.524;12.052;2023-06-10T04:35:56;96420.72;;;19.72;100.00
56944;BME280;42848;42.524;12.052;2023-06-10T04:38:23;96429.03;;;19.79;100.00
56944;BME280;42848;42.524;12.052;2023-06-10T04:40:49;96424.75;;;19.92;100.00
56944;BME280;42848;42.524;12.052;2023-06-10T04:43:14;96430.22;;;19.78;100.00
56944;BME280;42848;42.524;12.052;2023-06-10T04:45:41;96431.00;;;19.82;100.00
56944;BME280;42848;42.524;12.052;2023-06-10T04:48:10;96420.75;;;19.79;100.00
56944;BME280;42848;42.524;12.052;2023-06-10T04:50:37;96410.09;;;19.70;100.00
56944;BME280;42848;42.524;12.052;2023-06-10T04:53:02;96414.88;;;19.15;100.00
56944;BME280;42848;42.524;12.052;2023-06-10T04:55:28;96409.44;;;19.29;100.00
56944;BME280;42848;42.524;12.052;2023-06-10T04:57:54;96405.72;;;19.62;100.00
56944;BME280;42848;42.524;12.052;2023-06-10T05:00:20;96400.34;;;19.91;100.00
56944;BME280;42848;42.524;12.052;2023-06-10T05:02:45;96400.38;;;19.98;100.00
56944;BME280;42848;42.524;12.052;2023-06-10T05:05:18;96403.53;;;20.10;100.00
56944;BME280;42848;42.524;12.052;2023-06-10T05:07:44;96406.31;;;20.14;100.00
56944;BME280;42848;42.524;12.052;2023-06-10T05:10:10;96402.78;;;20.21;100.00
56944;BME280;42848;42.524;12.052;2023-06-10T05:12:38;96394.09;;;20.04;100.00
56944;BME280;42848;42.524;12.052;2023-06-10T05:15:06;96399.63;;;20.18;100.00
56944;BME280;42848;42.524;12.052;2023-06-10T05:17:32;96400.41;;;20.19;100.00
56944;BME280;42848;42.524;12.052;2023-06-10T05:19:57;96400.03;;;20.28;100.00
56944;BME280;42848;42.524;12.052;2023-06-10T05:22:23;96403.59;;;20.39;100.00
56944;BME280;42848;42.524;12.052;2023-06-10T05:24:53;96397.28;;;20.28;100.00
56944;BME280;42848;42.524;12.052;2023-06-10T05:27:19;96394.91;;;20.30;100.00
56944;BME280;42848;42.524;12.052;2023-06-10T05:29:44;96396.09;;;20.29;100.00
56944;BME280;42848;42.524;12.052;2023-06-10T05:32:11;96401.25;;;20.34;100.00
56944;BME280;42848;42.524;12.052;2023-06-10T05:34:36;96403.59;;;20.39;100.00
56944;BME280;42848;42.524;12.052;2023-06-10T05:37:02;96400.44;;;20.26;100.00
56944;BME280;42848;42.524;12.052;2023-06-10T05:39:28;96387.03;;;20.14;100.00
56944;BME280;42848;42.524;12.052;2023-06-10T05:41:54;96398.84;;;20.14;100.00
56944;BME280;42848;42.524;12.052;2023-06-10T05:44:19;96403.97;;;20.12;100.00
56944;BME280;42848;42.524;12.052;2023-06-10T05:46:45;96401.63;;;20.22;100.00
56944;BME280;42848;42.524;12.052;2023-06-10T05:49:11;96405.22;;;20.43;100.00
56944;BME280;42848;42.524;12.052;2023-06-10T05:51:36;96408.41;;;20.49;100.00
56944;BME280;42848;42.524;12.052;2023-06-10T05:54:02;96406.78;;;20.48;100.00
56944;BME280;42848;42.524;12.052;2023-06-10T05:56:28;96398.94;;;20.50;100.00
56944;BME280;42848;42.524;12.052;2023-06-10T05:58:54;96402.88;;;20.60;100.00
56944;BME280;42848;42.524;12.052;2023-06-10T06:01:20;96410.75;;;20.61;100.00
56944;BME280;42848;42.524;12.052;2023-06-10T06:03:45;96411.56;;;20.58;100.00
56944;BME280;42848;42.524;12.052;2023-06-10T06:06:11;96418.66;;;20.59;100.00
56944;BME280;42848;42.524;12.052;2023-06-10T06:08:37;96417.44;;;20.53;100.00
56944;BME280;42848;42.524;12.052;2023-06-10T06:11:02;96430.06;;;20.76;100.00
56944;BME280;42848;42.524;12.052;2023-06-10T06:13:28;96426.53;;;20.79;100.00
56944;BME280;42848;42.524;12.052;2023-06-10T06:15:53;96428.50;;;20.82;100.00
56944;BME280;42848;42.524;12.052;2023-06-10T06:18:19;96425.75;;;20.82;100.00
56944;BME280;42848;42.524;12.052;2023-06-10T06:20:45;96422.56;;;20.65;100.00
56944;BME280;42848;42.524;12.052;2023-06-10T06:23:10;96429.66;;;20.66;100.00
56944;BME280;42848;42.524;12.052;2023-06-10T06:25:36;96428.13;;;20.69;100.00
56944;BME280;42848;42.524;12.052;2023-06-10T06:28:06;96429.69;;;20.70;100.00
56944;BME280;42848;42.524;12.052;2023-06-10T06:30:32;96421.00;;;20.64;100.00
56944;BME280;42848;42.524;12.052;2023-06-10T06:32:57;96419.84;;;20.58;100.00
56944;BME280;42848;42.524;12.052;2023-06-10T06:35:23;96421.41;;;20.59;100.00
56944;BME280;42848;42.524;12.052;2023-06-10T06:37:49;96408.41;;;20.74;100.00
56944;BME280;42848;42.524;12.052;2023-06-10T06:40:15;96413.94;;;20.78;100.00
56944;BME280;42848;42.524;12.052;2023-06-10T06:42:41;96410.38;;;20.84;100.00
56944;BME280;42848;42.524;12.052;2023-06-10T06:45:07;96412.75;;;20.86;100.00
56944;BME280;42848;42.524;12.052;2023-06-10T06:47:32;96419.47;;;20.85;100.00
56944;BME280;42848;42.524;12.052;2023-06-10T06:49:58;96415.50;;;20.93;100.00
56944;BME280;42848;42.524;12.052;2023-06-10T06:52:23;96421.00;;;21.07;100.00
56944;BME280;42848;42.524;12.052;2023-06-10T06:54:49;96415.09;;;20.98;100.00
56944;BME280;42848;42.524;12.052;2023-06-10T06:57:15;96419.81;;;20.83;100.00
56944;BME280;42848;42.524;12.052;2023-06-10T06:59:40;96414.69;;;21.10;100.00
56944;BME280;42848;42.524;12.052;2023-06-10T07:02:06;96421.81;;;20.97;100.00
56944;BME280;42848;42.524;12.052;2023-06-10T07:04:32;96412.75;;;20.89;100.00
56944;BME280;42848;42.524;12.052;2023-06-10T07:06:57;96417.47;;;21.03;100.00
56944;BME280;42848;42.524;12.052;2023-06-10T07:09:23;96420.25;;;20.67;100.00
56944;BME280;42848;42.524;12.052;2023-06-10T07:11:49;96413.50;;;20.76;100.00
56944;BME280;42848;42.524;12.052;2023-06-10T07:14:14;96418.25;;;21.07;100.00
56944;BME280;42848;42.524;12.052;2023-06-10T07:16:40;96421.00;;;21.18;100.00
56944;BME280;42848;42.524;12.052;2023-06-10T07:19:05;96430.47;;;21.17;100.00
56944;BME280;42848;42.524;12.052;2023-06-10T07:21:31;96436.41;;;20.76;100.00
56944;BME280;42848;42.524;12.052;2023-06-10T07:23:58;96436.00;;;21.06;100.00
56944;BME280;42848;42.524;12.052;2023-06-10T07:26:24;96438.34;;;20.83;100.00
56944;BME280;42848;42.524;12.052;2023-06-10T07:28:51;96431.25;;;20.82;100.00
56944;BME280;42848;42.524;12.052;2023-06-10T07:31:17;96430.50;;;20.78;100.00
56944;BME280;42848;42.524;12.052;2023-06-10T07:33:43;96427.31;;;20.90;100.00
56944;BME280;42848;42.524;12.052;2023-06-10T07:36:09;96431.25;;;20.92;100.00
56944;BME280;42848;42.524;12.052;2023-06-10T07:38:35;96431.25;;;21.10;100.00
56944;BME280;42848;42.524;12.052;2023-06-10T07:41:01;96433.63;;;21.15;100.00
56944;BME280;42848;42.524;12.052;2023-06-10T07:43:26;96426.50;;;21.25;100.00
56944;BME280;42848;42.524;12.052;2023-06-10T07:45:52;96433.63;;;21.26;100.00
56944;BME280;42848;42.524;12.052;2023-06-10T07:48:18;96441.50;;;21.17;100.00
56944;BME280;42848;42.524;12.052;2023-06-10T07:50:43;96437.97;;;20.88;100.00
56944;BME280;42848;42.524;12.052;2023-06-10T07:53:09;96445.47;;;20.94;100.00
56944;BME280;42848;42.524;12.052;2023-06-10T07:55:35;96440.72;;;20.81;100.00
56944;BME280;42848;42.524;12.052;2023-06-10T07:58:00;96441.13;;;21.04;100.00
56944;BME280;42848;42.524;12.052;2023-06-10T08:00:26;96448.63;;;21.21;100.00
56944;BME280;42848;42.524;12.052;2023-06-10T08:02:52;96441.50;;;21.49;100.00
56944;BME280;42848;42.524;12.052;2023-06-10T08:05:17;96442.69;;;21.23;100.00
56944;BME280;42848;42.524;12.052;2023-06-10T08:07:44;96435.19;;;21.23;100.00
56944;BME280;42848;42.524;12.052;2023-06-10T08:10:10;96450.19;;;21.22;100.00
56944;BME280;42848;42.524;12.052;2023-06-10T08:12:36;96444.28;;;21.10;100.00
56944;BME280;42848;42.524;12.052;2023-06-10T08:15:02;96442.28;;;21.17;100.00
56944;BME280;42848;42.524;12.052;2023-06-10T08:17:31;96443.09;;;21.36;100.00
56944;BME280;42848;42.524;12.052;2023-06-10T08:19:57;96444.28;;;21.42;100.00
56944;BME280;42848;42.524;12.052;2023-06-10T08:22:22;96443.47;;;21.45;100.00
56944;BME280;42848;42.524;12.052;2023-06-10T08:24:48;96448.59;;;21.46;100.00
56944;BME280;42848;42.524;12.052;2023-06-10T08:27:13;96442.25;;;21.64;100.00
56944;BME280;42848;42.524;12.052;2023-06-10T08:29:39;96450.47;;;21.85;100.00
56944;BME280;42848;42.524;12.052;2023-06-10T08:32:06;96449.34;;;21.61;100.00
56944;BME280;42848;42.524;12.052;2023-06-10T08:34:34;96450.53;;;21.64;100.00
56944;BME280;42848;42.524;12.052;2023-06-10T08:37:01;96455.63;;;21.72;100.00
56944;BME280;42848;42.524;12.052;2023-06-10T08:39:27;96451.66;;;21.80;100.00
56944;BME280;42848;42.524;12.052;2023-06-10T08:42:23;96448.50;;;21.85;100.00
56944;BME280;42848;42.524;12.052;2023-06-10T08:44:53;96451.28;;;21.82;100.00
56944;BME280;42848;42.524;12.052;2023-06-10T08:47:22;96446.50;;;21.90;100.00
56944;BME280;42848;42.524;12.052;2023-06-10T08:49:48;96443.31;;;21.98;100.00
56944;BME280;42848;42.524;12.052;2023-06-10T08:52:17;96449.31;;;21.79;100.00
56944;BME280;42848;42.524;12.052;2023-06-10T08:54:49;96449.25;;;21.93;100.00
56944;BME280;42848;42.524;12.052;2023-06-10T08:57:17;96447.69;;;21.96;100.00
56944;BME280;42848;42.524;12.052;2023-06-10T08:59:46;96441.34;;;21.99;100.00
56944;BME280;42848;42.524;12.052;2023-06-10T09:02:13;96450.00;;;22.15;100.00
56944;BME280;42848;42.524;12.052;2023-06-10T09:04:42;96438.94;;;22.15;100.00
56944;BME280;42848;42.524;12.052;2023-06-10T09:07:10;96438.00;;;22.39;100.00
56944;BME280;42848;42.524;12.052;2023-06-10T09:09:37;96446.91;;;22.72;100.00
56944;BME280;42848;42.524;12.052;2023-06-10T09:12:03;96448.28;;;23.02;100.00
56944;BME280;42848;42.524;12.052;2023-06-10T09:14:29;96450.16;;;23.12;100.00
56944;BME280;42848;42.524;12.052;2023-06-10T09:16:55;96449.69;;;22.65;100.00
56944;BME280;42848;42.524;12.052;2023-06-10T09:19:25;96448.88;;;22.71;100.00
56944;BME280;42848;42.524;12.052;2023-06-10T09:21:52;96452.91;;;22.60;100.00
56944;BME280;42848;42.524;12.052;2023-06-10T09:24:18;96451.72;;;22.57;100.00
56944;BME280;42848;42.524;12.052;2023-06-10T09:26:43;96445.03;;;22.55;100.00
56944;BME280;42848;42.524;12.052;2023-06-10T09:29:11;96447.91;;;22.40;100.00
56944;BME280;42848;42.524;12.052;2023-06-10T09:31:40;96449.88;;;22.36;100.00
56944;BME280;42848;42.524;12.052;2023-06-10T09:34:11;96446.78;;;22.24;100.00
56944;BME280;42848;42.524;12.052;2023-06-10T09:36:38;96441.22;;;22.27;100.00
56944;BME280;42848;42.524;12.052;2023-06-10T09:39:04;96445.28;;;21.94;100.00
56944;BME280;42848;42.524;12.052;2023-06-10T09:41:40;96435.66;;;22.31;100.00
56944;BME280;42848;42.524;12.052;2023-06-10T09:44:19;96443.16;;;22.37;100.00
56944;BME280;42848;42.524;12.052;2023-06-10T09:46:46;96442.81;;;22.28;100.00
56944;BME280;42848;42.524;12.052;2023-06-10T09:49:13;96438.47;;;22.27;100.00
56944;BME280;42848;42.524;12.052;2023-06-10T09:51:59;96442.41;;;22.33;100.00
56944;BME280;42848;42.524;12.052;2023-06-10T09:54:31;96444.50;;;22.08;100.00
56944;BME280;42848;42.524;12.052;2023-06-10T09:56:57;96449.25;;;21.97;100.00
56944;BME280;42848;42.524;12.052;2023-06-10T09:59:30;96446.13;;;21.84;100.00
56944;BME280;42848;42.524;12.052;2023-06-10T10:02:00;96431.94;;;21.85;100.00
56944;BME280;42848;42.524;12.052;2023-06-10T10:04:26;96436.63;;;21.92;100.00
56944;BME280;42848;42.524;12.052;2023-06-10T10:06:52;96437.41;;;21.96;100.00
56944;BME280;42848;42.524;12.052;2023-06-10T10:09:18;96437.38;;;22.00;100.00
56944;BME280;42848;42.524;12.052;2023-06-10T10:11:44;96433.03;;;22.02;100.00
56944;BME280;42848;42.524;12.052;2023-06-10T10:14:11;96429.47;;;22.09;100.00
56944;BME280;42848;42.524;12.052;2023-06-10T10:16:41;96424.78;;;21.92;100.00
56944;BME280;42848;42.524;12.052;2023-06-10T10:19:20;96430.19;;;22.24;100.00
56944;BME280;42848;42.524;12.052;2023-06-10T10:22:01;96423.06;;;22.26;100.00
56944;BME280;42848;42.524;12.052;2023-06-10T10:24:34;96428.13;;;22.38;100.00
56944;BME280;42848;42.524;12.052;2023-06-10T10:27:05;96430.88;;;22.38;100.00
56944;BME280;42848;42.524;12.052;2023-06-10T10:29:39;96415.88;;;22.43;100.00
56944;BME280;42848;42.524;12.052;2023-06-10T10:32:10;96425.66;;;22.55;100.00
56944;BME280;42848;42.524;12.052;2023-06-10T10:34:45;96423.78;;;22.41;100.00
56944;BME280;42848;42.524;12.052;2023-06-10T10:37:14;96411.34;;;22.67;100.00
56944;BME280;42848;42.524;12.052;2023-06-10T10:39:40;96405.91;;;22.53;100.00
56944;BME280;42848;42.524;12.052;2023-06-10T10:42:07;96405.59;;;22.43;100.00
56944;BME280;42848;42.524;12.052;2023-06-10T10:44:37;96408.31;;;22.51;100.00
56944;BME280;42848;42.524;12.052;2023-06-10T10:47:08;96406.59;;;22.67;100.00
56944;BME280;42848;42.524;12.052;2023-06-10T10:49:38;96403.47;;;22.62;100.00
56944;BME280;42848;42.524;12.052;2023-06-10T10:52:11;96407.44;;;22.61;100.00
56944;BME280;42848;42.524;12.052;2023-06-10T10:54:37;96399.78;;;22.86;100.00
56944;BME280;42848;42.524;12.052;2023-06-10T10:57:10;96400.31;;;23.12;100.00
56944;BME280;42848;42.524;12.052;2023-06-10T11:02:46;96388.78;;;23.62;100.00
56944;BME280;42848;42.524;12.052;2023-06-10T11:05:15;96378.59;;;23.48;100.00
56944;BME280;42848;42.524;12.052;2023-06-10T11:07:52;96379.22;;;23.66;100.00
56944;BME280;42848;42.524;12.052;2023-06-10T11:10:35;96380.28;;;23.76;100.00
56944;BME280;42848;42.524;12.052;2023-06-10T11:13:09;96368.44;;;24.06;100.00
56944;BME280;42848;42.524;12.052;2023-06-10T11:15:39;96380.41;;;23.65;100.00
56944;BME280;42848;42.524;12.052;2023-06-10T11:31:27;96374.97;;;23.17;100.00
56944;BME280;42848;42.524;12.052;2023-06-10T11:33:59;96377.50;;;23.01;100.00
56944;BME280;42848;42.524;12.052;2023-06-10T11:36:26;96367.25;;;22.97;100.00
56944;BME280;42848;42.524;12.052;2023-06-10T11:38:57;96365.34;;;23.32;100.00
56944;BME280;42848;42.524;12.052;2023-06-10T11:41:24;96370.94;;;23.25;100.00
56944;BME280;42848;42.524;12.052;2023-06-10T11:44:04;96366.78;;;23.06;100.00
56944;BME280;42848;42.524;12.052;2023-06-10T11:46:30;96363.53;;;23.15;100.00
56944;BME280;42848;42.524;12.052;2023-06-10T11:48:58;96364.63;;;22.76;100.00
56944;BME280;42848;42.524;12.052;2023-06-10T11:51:28;96359.63;;;22.60;100.00
56944;BME280;42848;42.524;12.052;2023-06-10T11:53:54;96366.94;;;22.29;100.00
56944;BME280;42848;42.524;12.052;2023-06-10T11:58:55;96391.38;;;22.41;100.00
56944;BME280;42848;42.524;12.052;2023-06-10T12:01:24;96385.84;;;22.41;100.00
56944;BME280;42848;42.524;12.052;2023-06-10T12:04:07;96381.97;;;22.28;100.00
56944;BME280;42848;42.524;12.052;2023-06-10T12:06:40;96388.78;;;22.13;100.00
56944;BME280;42848;42.524;12.052;2023-06-10T12:09:25;96374.59;;;22.07;100.00
56944;BME280;42848;42.524;12.052;2023-06-10T12:12:03;96364.31;;;22.01;100.00
56944;BME280;42848;42.524;12.052;2023-06-10T12:14:54;96369.97;;;22.49;100.00
56944;BME280;42848;42.524;12.052;2023-06-10T12:20:04;96350.25;;;22.43;100.00
56944;BME280;42848;42.524;12.052;2023-06-10T12:22:43;96344.34;;;22.93;100.00
56944;BME280;42848;42.524;12.052;2023-06-10T12:25:09;96338.06;;;22.89;100.00
56944;BME280;42848;42.524;12.052;2023-06-10T12:27:36;96338.00;;;22.93;100.00
56944;BME280;42848;42.524;12.052;2023-06-10T12:30:04;96330.63;;;22.79;100.00
56944;BME280;42848;42.524;12.052;2023-06-10T12:32:45;96327.00;;;22.82;100.00
56944;BME280;42848;42.524;12.052;2023-06-10T12:35:16;96327.78;;;22.90;100.00
56944;BME280;42848;42.524;12.052;2023-06-10T12:38:03;96333.81;;;23.19;100.00
56944;BME280;42848;42.524;12.052;2023-06-10T12:40:34;96324.47;;;23.02;100.00
56944;BME280;42848;42.524;12.052;2023-06-10T12:43:02;96322.25;;;22.83;100.00
56944;BME280;42848;42.524;12.052;2023-06-10T12:45:33;96329.53;;;23.11;100.00
56944;BME280;42848;42.524;12.052;2023-06-10T12:48:09;96330.28;;;23.52;100.00
56944;BME280;42848;42.524;12.052;2023-06-10T12:50:36;96314.84;;;23.51;100.00
56944;BME280;42848;42.524;12.052;2023-06-10T12:53:03;96309.28;;;23.86;100.00
56944;BME280;42848;42.524;12.052;2023-06-10T12:55:28;96307.19;;;23.93;100.00
56944;BME280;42848;42.524;12.052;2023-06-10T12:57:54;96305.72;;;23.85;100.00
56944;BME280;42848;42.524;12.052;2023-06-10T13:00:22;96291.50;;;24.10;100.00
56944;BME280;42848;42.524;12.052;2023-06-10T13:02:54;96287.31;;;23.98;100.00
56944;BME280;42848;42.524;12.052;2023-06-10T13:05:20;96285.78;;;24.21;100.00
56944;BME280;42848;42.524;12.052;2023-06-10T13:07:47;96292.28;;;24.10;100.00
56944;BME280;42848;42.524;12.052;2023-06-10T13:10:17;96295.75;;;24.45;100.00